Aérodrome :
LOGIN :

S'inscrire | Disclaimer

   EN    FR    IT 

 










Légende :    VFR   VFR Marginal   IFR   IFR Intensif   IFR Très Intensif
Visi : 
Plafond : 
>= 8 km
>= 3000ft
5 à 8 km
1000 à 3000 ft
1500m à 5 km
500 à 1000 ft
800 à 1500m
200 à 500 ft
< 800m
< 200 ft
Symboles :   Orages  Brouillard  Fortes neiges  Fortes précipitations  Vent > 20 kt
SIGMETs :   Divers  Orages  Givrage  Turbulence  Onde Orograph.  Cendres Volcan.







- Altitude de l'aérodrome : 288 ft
- Code IATA : BZZ


EGVN - RAF Brize Norton

DERNIER METAR :
  • 220550Z 15002KT CAVOK 13/12 Q1009 NOSIG

METARs EXPIRÉS :
  • 220450Z 08003KT CAVOK 13/11 Q1009 BLU NOSIG
  • 220350Z 13004KT CAVOK 14/12 Q1010 NOSIG

TAF TAF EGVN
Valide du 22 à 06h jusqu'au 23 à 06h UTC


220423Z 2206/2306 22008KT 9999 FEW040
PROB30
TEMPO 2209/2215 -RA SCT020
PROB40
TEMPO 2222/2304 SCT012
Pas de NOTAMs connus pour ce terrain.
1 SIGMET publié pour la FIR London (EGTT) :
 
Orages noyés dans la masse avec grêle
EGTT SIGMET 01 VALID 220330/220700 EGRR
EGTT LONDON FIR EMBD TSGR FCST WI N5437 W00243 - N5340 E00142 - N5142 E00150 - N5213 W00132 - N5437 W00243 TOP FL320 MOV N 15KT NC=



MET'MAP, la Météo Aéronautique d'un coup d'oeil ! - Copyright ORBIFLY Décembre 2007 - Disclaimer

ORBIFLY MET'MAP TEAM :

Programmation & Développement : Alexandra Zaïnal
Conception & Développement : Baudouin d'Aumeries
Co-Programmation & Développement : Marc-Olivier Méhu
Soutien technique & logistique : Manuel Goepfert

Contact : metmap@orbifly.com




SOURCES & CREDITS :

   NOAA